createdAt,value
2018-11-06T00:01:10.997Z,8.61
2018-11-06T00:06:08.448Z,8.68
2018-11-06T00:11:06.700Z,8.92
2018-11-06T00:16:13.512Z,9.26
2018-11-06T00:21:10.990Z,8.77
2018-11-06T00:26:08.495Z,8.30
2018-11-06T00:31:05.929Z,8.33
2018-11-06T00:36:03.360Z,8.06
2018-11-06T00:41:00.800Z,8.45
2018-11-06T00:46:10.882Z,8.03
2018-11-06T00:51:08.367Z,8.25
2018-11-06T00:56:05.817Z,8.45
2018-11-06T01:01:03.299Z,8.09
2018-11-06T01:06:00.718Z,8.26
2018-11-06T01:10:58.153Z,8.13
2018-11-06T01:16:03.180Z,8.46
2018-11-06T01:21:00.660Z,8.49
2018-11-06T01:25:58.129Z,7.92
2018-11-06T01:30:55.563Z,7.91
2018-11-06T01:35:52.976Z,7.60
2018-11-06T01:40:50.421Z,7.63
2018-11-06T01:45:54.514Z,7.47
2018-11-06T01:50:51.997Z,7.22
2018-11-06T01:55:49.424Z,7.42
2018-11-06T02:00:46.905Z,7.48
2018-11-06T02:05:44.334Z,7.49
2018-11-06T02:10:41.744Z,7.57
2018-11-06T02:15:42.109Z,7.82
2018-11-06T02:20:39.605Z,7.73
2018-11-06T02:25:37.046Z,7.79
2018-11-06T02:30:34.504Z,7.89
2018-11-06T02:35:31.929Z,7.98
2018-11-06T02:40:29.364Z,7.86
2018-11-06T02:45:26.796Z,7.71
2018-11-06T02:50:24.229Z,7.71
2018-11-06T02:55:21.664Z,7.79
2018-11-06T03:00:19.099Z,7.80
2018-11-06T03:05:16.532Z,7.70
2018-11-06T03:10:14.657Z,7.68
2018-11-06T03:15:12.956Z,8.02
2018-11-06T03:20:11.153Z,7.88
2018-11-06T03:25:08.616Z,7.89
2018-11-06T03:30:08.325Z,7.58
2018-11-06T03:35:06.392Z,7.45
2018-11-06T03:40:04.194Z,7.60
2018-11-06T03:45:01.636Z,7.47
2018-11-06T03:49:59.071Z,7.44
2018-11-06T03:54:56.640Z,7.40
2018-11-06T03:59:54.092Z,7.31
2018-11-06T04:04:51.521Z,7.26
2018-11-06T04:09:48.978Z,7.09
2018-11-06T04:14:46.408Z,7.24
2018-11-06T04:19:43.860Z,7.26
2018-11-06T04:24:43.335Z,7.45
2018-11-06T04:29:40.832Z,7.14
2018-11-06T04:34:38.269Z,7.42
2018-11-06T04:39:35.713Z,7.41
2018-11-06T04:44:33.156Z,7.32
2018-11-06T04:49:30.661Z,7.10
2018-11-06T04:54:28.087Z,6.96
2018-11-06T04:59:25.532Z,7.42
2018-11-06T05:04:22.985Z,7.26
2018-11-06T05:09:20.435Z,7.11
2018-11-06T05:14:17.899Z,7.32
2018-11-06T05:19:15.427Z,7.26
2018-11-06T05:24:12.848Z,6.75
2018-11-06T05:29:10.364Z,6.96
2018-11-06T05:34:07.805Z,7.41
2018-11-06T05:39:07.662Z,7.57
2018-11-06T05:44:05.212Z,7.46
2018-11-06T05:49:02.549Z,7.53
2018-11-06T05:54:00.007Z,7.60
2018-11-06T05:58:57.550Z,6.93
2018-11-06T06:03:55.040Z,6.73
2018-11-06T06:08:52.527Z,6.71
2018-11-06T06:13:49.989Z,7.17
2018-11-06T06:18:47.561Z,6.84
2018-11-06T06:23:45.005Z,6.87
2018-11-06T06:28:42.458Z,7.35
2018-11-06T06:33:39.922Z,7.02
2018-11-06T06:38:37.406Z,6.69
2018-11-06T06:43:34.868Z,7.18
2018-11-06T06:48:32.320Z,7.15
2018-11-06T06:53:29.812Z,7.46
2018-11-06T06:58:27.255Z,7.15
2018-11-06T07:03:24.942Z,7.34
2018-11-06T07:08:22.436Z,7.71
2018-11-06T07:13:19.907Z,7.65
2018-11-06T07:18:17.363Z,7.91
2018-11-06T07:23:14.821Z,8.27
2018-11-06T07:28:12.296Z,8.62
2018-11-06T07:33:09.728Z,8.57
2018-11-06T07:38:07.185Z,8.80
2018-11-06T07:43:04.736Z,9.08
2018-11-06T07:48:02.185Z,9.32
2018-11-06T07:52:59.636Z,9.24
2018-11-06T07:57:57.089Z,9.69
2018-11-06T08:02:54.616Z,9.80
2018-11-06T08:07:52.420Z,10.00
2018-11-06T08:12:55.188Z,10.14
2018-11-06T08:17:52.641Z,10.43
2018-11-06T08:22:50.118Z,10.79
2018-11-06T08:27:47.626Z,10.68
2018-11-06T08:32:45.432Z,10.84
2018-11-06T08:37:42.967Z,11.21
2018-11-06T08:42:40.495Z,11.66
2018-11-06T08:47:38.265Z,11.94
2018-11-06T08:52:35.752Z,12.00
2018-11-06T08:57:33.262Z,12.16
2018-11-06T09:02:30.756Z,12.34
2018-11-06T09:07:28.221Z,12.32
2018-11-06T09:12:25.671Z,12.44
2018-11-06T09:17:23.108Z,12.48
2018-11-06T09:22:20.596Z,12.58
2018-11-06T09:27:18.038Z,12.31
2018-11-06T09:32:15.549Z,12.21
2018-11-06T09:37:13.013Z,12.24
2018-11-06T09:42:10.484Z,12.35
2018-11-06T09:47:07.955Z,12.33
2018-11-06T09:52:05.477Z,12.52
2018-11-06T09:57:02.939Z,12.81
2018-11-06T10:02:00.432Z,13.02
2018-11-06T10:06:58.161Z,13.37
2018-11-06T10:11:55.456Z,13.38
2018-11-06T10:16:53.087Z,13.79
2018-11-06T10:21:52.385Z,14.15
2018-11-06T10:26:50.010Z,14.36
2018-11-06T10:31:47.473Z,14.11
2018-11-06T10:36:45.030Z,14.39
2018-11-06T10:41:42.768Z,14.78
2018-11-06T10:46:42.135Z,15.01
2018-11-06T10:51:39.822Z,15.21
2018-11-06T10:56:37.258Z,15.44
2018-11-06T11:01:40.261Z,15.73
2018-11-06T11:06:37.709Z,16.22
2018-11-06T11:11:35.233Z,16.31
2018-11-06T11:16:34.018Z,16.17
2018-11-06T11:21:31.579Z,16.47
2018-11-06T11:26:29.077Z,16.43
2018-11-06T11:31:26.603Z,16.37
2018-11-06T11:36:24.365Z,16.78
2018-11-06T11:41:21.844Z,16.59
2018-11-06T11:46:24.230Z,16.42
2018-11-06T11:51:21.727Z,16.11
2018-11-06T11:56:19.194Z,16.16
2018-11-06T12:01:16.654Z,16.14
2018-11-06T12:06:14.130Z,16.15
2018-11-06T12:11:11.600Z,16.13
2018-11-06T12:16:22.780Z,16.20
2018-11-06T12:21:20.235Z,16.14
2018-11-06T12:26:17.712Z,15.99
2018-11-06T12:31:15.257Z,16.09
2018-11-06T12:36:12.709Z,16.08
2018-11-06T12:41:10.438Z,16.24
2018-11-06T12:51:17.353Z,16.42
2018-11-06T12:56:14.862Z,16.33
2018-11-06T13:01:13.795Z,16.33
2018-11-06T13:06:13.287Z,16.56
2018-11-06T13:11:11.885Z,16.47
2018-11-06T13:16:22.725Z,16.53
2018-11-06T13:21:21.420Z,16.28
2018-11-06T13:26:20.069Z,16.43
2018-11-06T13:31:18.713Z,16.31
2018-11-06T13:36:17.113Z,16.39
2018-11-06T13:41:15.005Z,16.28
2018-11-06T13:46:17.511Z,16.29
2018-11-06T13:51:16.503Z,16.35
2018-11-06T13:56:14.655Z,16.37
2018-11-06T14:01:13.916Z,16.24
2018-11-06T14:06:14.094Z,16.19
2018-11-06T14:11:16.127Z,16.05
2018-11-06T14:16:17.185Z,15.79
2018-11-06T14:21:17.940Z,15.70
2018-11-06T14:26:17.854Z,15.57
2018-11-06T14:31:15.880Z,15.48
2018-11-06T14:36:13.741Z,15.39
2018-11-06T14:41:11.607Z,15.34
2018-11-06T14:46:12.952Z,15.23
2018-11-06T14:51:10.673Z,15.13
2018-11-06T14:56:08.211Z,15.11
2018-11-06T15:01:05.682Z,14.94
2018-11-06T15:06:03.151Z,15.07
2018-11-06T15:11:00.551Z,14.94
2018-11-06T15:16:03.600Z,14.84
2018-11-06T15:21:01.165Z,14.69
2018-11-06T15:25:58.610Z,14.45
2018-11-06T15:30:56.065Z,14.22
2018-11-06T15:35:53.539Z,14.11
2018-11-06T15:40:51.055Z,14.02
2018-11-06T15:46:00.907Z,13.87
2018-11-06T15:50:58.521Z,13.93
2018-11-06T15:55:55.995Z,13.99
2018-11-06T16:00:53.486Z,13.91
2018-11-06T16:05:51.122Z,13.76
2018-11-06T16:10:50.682Z,13.64
2018-11-06T16:15:50.574Z,13.59
2018-11-06T16:20:48.161Z,13.56
2018-11-06T16:25:45.561Z,13.31
2018-11-06T16:30:43.834Z,13.32
2018-11-06T16:35:41.367Z,13.20
2018-11-06T16:40:38.810Z,13.14
2018-11-06T16:45:36.254Z,13.12
2018-11-06T16:50:33.688Z,13.06
2018-11-06T16:55:31.125Z,13.02
2018-11-06T17:00:28.768Z,12.87
2018-11-06T17:05:26.086Z,13.00
2018-11-06T17:10:23.532Z,12.44
2018-11-06T17:15:22.017Z,12.23
2018-11-06T17:20:19.993Z,12.26
2018-11-06T17:25:18.672Z,12.71
2018-11-06T17:30:17.072Z,12.92
2018-11-06T17:35:16.638Z,12.83
2018-11-06T17:40:15.348Z,12.65
2018-11-06T17:45:14.419Z,12.36
2018-11-06T17:50:14.050Z,12.52
2018-11-06T17:55:12.871Z,12.38
2018-11-06T18:00:14.033Z,12.57
2018-11-06T18:05:12.441Z,12.49
2018-11-06T18:10:11.772Z,12.26
2018-11-06T18:15:09.204Z,12.35
2018-11-06T18:20:07.422Z,12.34
2018-11-06T18:25:05.352Z,12.04
2018-11-06T18:30:02.844Z,11.62
2018-11-06T18:35:00.280Z,11.40
2018-11-06T18:39:57.721Z,11.39
2018-11-06T18:44:55.166Z,11.63
2018-11-06T18:49:52.682Z,11.91
2018-11-06T18:54:50.080Z,11.52
2018-11-06T18:59:47.514Z,11.26
2018-11-06T19:04:44.952Z,11.24
2018-11-06T19:09:42.381Z,11.03
2018-11-06T19:14:39.920Z,11.14
2018-11-06T19:19:37.356Z,10.82
2018-11-06T19:24:34.896Z,10.71
2018-11-06T19:29:32.337Z,10.71
2018-11-06T19:34:29.769Z,10.78
2018-11-06T19:39:27.212Z,10.84
2018-11-06T19:44:24.690Z,10.84
2018-11-06T19:49:22.127Z,10.59
2018-11-06T19:54:19.714Z,10.44
2018-11-06T19:59:18.592Z,10.53
2018-11-06T20:04:16.036Z,10.26
2018-11-06T20:09:14.555Z,10.08
2018-11-06T20:14:12.025Z,10.02
2018-11-06T20:19:09.488Z,9.78
2018-11-06T20:24:07.003Z,9.71
2018-11-06T20:29:04.501Z,9.60
2018-11-06T20:34:01.960Z,10.34
2018-11-06T20:39:00.539Z,10.19
2018-11-06T20:43:58.058Z,9.78
2018-11-06T20:48:55.559Z,9.52
2018-11-06T20:53:53.061Z,9.47
2018-11-06T20:58:50.580Z,9.69
2018-11-06T21:03:48.081Z,10.15
2018-11-06T21:08:45.653Z,9.73
2018-11-06T21:13:43.215Z,9.47
2018-11-06T21:18:42.065Z,9.56
2018-11-06T21:23:41.725Z,10.01
2018-11-06T21:28:41.241Z,9.81
2018-11-06T21:33:42.133Z,9.77
2018-11-06T21:38:40.815Z,10.03
2018-11-06T21:43:40.031Z,9.55
2018-11-06T21:48:40.354Z,9.50
2018-11-06T21:53:37.865Z,9.30
2018-11-06T21:58:35.425Z,9.54
2018-11-06T22:03:32.902Z,9.39
2018-11-06T22:08:30.344Z,9.11
2018-11-06T22:13:27.801Z,9.22
2018-11-06T22:18:25.273Z,8.80
2018-11-06T22:23:22.814Z,8.58
2018-11-06T22:28:20.236Z,9.34
2018-11-06T22:33:17.704Z,8.99
2018-11-06T22:38:15.141Z,8.86
2018-11-06T22:43:12.576Z,9.06
2018-11-06T22:48:10.118Z,9.19
2018-11-06T22:53:07.614Z,9.25
2018-11-06T22:58:05.288Z,9.47
2018-11-06T23:03:07.296Z,9.44
2018-11-06T23:08:10.256Z,9.69
2018-11-06T23:13:07.949Z,9.85
2018-11-06T23:18:05.526Z,9.89
2018-11-06T23:23:03.009Z,9.93
2018-11-06T23:28:02.909Z,9.70
2018-11-06T23:33:01.843Z,9.69
2018-11-06T23:38:00.389Z,9.53
2018-11-06T23:42:57.876Z,9.36
2018-11-06T23:47:56.304Z,9.68
2018-11-06T23:52:53.744Z,9.36
2018-11-06T23:57:51.669Z,9.33
